Time;durP1;ratioP1;P1;durP2;ratioP2;P2;SDS_P1;SDS_P2;PMS_P1;PMS_P2;Temp;Humidity;BMP_temperature;BMP_pressure;BME280_temperature;BME280_humidity;BME280_pressure;Samples;Min_cycle;Max_cycle;Signal;HPM_P1;HPM_P2
2021/12/10 00:02:10;;;;;;;59.30;34.10;;;;;;;2.75;88.22;99299.28;1411118;92;21929;-93
2021/12/10 00:04:41;;;;;;;60.00;34.77;;;;;;;2.71;88.02;99296.92;1422911;90;21941;-92
2021/12/10 00:07:17;;;;;;;57.87;34.07;;;;;;;2.71;88.02;99296.92;1447432;89;23811;-92
2021/12/10 00:09:49;;;;;;;57.70;32.83;;;;;;;2.73;88.01;99297.02;1443341;90;22360;-93
2021/12/10 00:12:22;;;;;;;59.67;32.20;;;;;;;2.76;88.39;99297.02;1444210;90;22286;-92
2021/12/10 00:14:50;;;;;;;47.50;28.27;;;;;;;2.85;88.81;99301.48;1443170;90;23234;-92
2021/12/10 00:17:20;;;;;;;44.93;25.17;;;;;;;2.95;89.06;99294.55;1446984;90;22113;-92
2021/12/10 00:19:53;;;;;;;31.00;18.80;;;;;;;3.10;89.78;99292.45;1443616;90;21961;-93
2021/12/10 00:22:34;;;;;;;25.27;15.10;;;;;;;3.10;89.78;99292.45;1414631;91;22130;-94
2021/12/10 00:24:59;;;;;;;24.63;15.87;;;;;;;3.22;90.52;99292.73;1422298;91;21981;-95
2021/12/10 00:27:29;;;;;;;20.07;13.13;;;;;;;3.30;90.31;99281.64;1389951;92;22234;-94
2021/12/10 00:30:13;;;;;;;18.87;13.10;;;;;;;3.46;90.52;99292.95;1412968;91;23368;-93
2021/12/10 00:32:45;;;;;;;19.80;14.60;;;;;;;3.57;90.62;99292.87;1421068;92;22426;-94
2021/12/10 00:35:18;;;;;;;19.77;13.43;;;;;;;3.68;90.28;99299.30;1395754;92;24103;-93
2021/12/10 00:37:48;;;;;;;22.63;14.67;;;;;;;3.74;90.20;99297.95;1414319;92;22201;-94
2021/12/10 00:40:18;;;;;;;19.23;13.17;;;;;;;3.83;90.02;99292.77;1390356;94;22109;-93
2021/12/10 00:42:46;;;;;;;19.65;13.48;;;;;;;3.88;89.85;99294.98;1400847;93;23205;-93
2021/12/10 00:45:17;;;;;;;18.03;12.47;;;;;;;3.93;89.76;99294.11;1413042;92;21465;-92
2021/12/10 00:47:45;;;;;;;20.65;13.10;;;;;;;3.97;89.59;99288.97;1395756;91;22184;-94
2021/12/10 00:50:18;;;;;;;18.90;12.70;;;;;;;4.02;89.63;99290.69;1423950;91;21656;-93
2021/12/10 00:52:47;;;;;;;22.07;14.10;;;;;;;4.06;89.55;99288.16;1409921;92;22171;-92
2021/12/10 00:55:16;;;;;;;18.63;12.60;;;;;;;4.10;89.50;99287.41;1413559;92;22401;-93
2021/12/10 00:57:51;;;;;;;21.50;12.07;;;;;;;4.14;89.52;99286.16;1411507;92;23193;-94
2021/12/10 01:00:26;;;;;;;19.20;12.83;;;;;;;4.15;90.11;99286.53;1412626;92;22266;-93
2021/12/10 01:02:54;;;;;;;18.53;13.23;;;;;;;4.23;90.25;99284.53;1409382;92;22163;-92
2021/12/10 01:05:25;;;;;;;18.63;12.60;;;;;;;4.24;90.66;99283.58;1412704;92;21405;-93
2021/12/10 01:07:52;;;;;;;21.17;12.68;;;;;;;4.24;90.66;99283.58;1403094;92;21933;-93
2021/12/10 01:10:31;;;;;;;17.97;12.80;;;;;;;4.27;90.40;99281.52;1415105;92;21354;-91
2021/12/10 01:13:01;;;;;;;18.97;10.80;;;;;;;4.29;90.48;99277.47;1415207;92;22377;-90
2021/12/10 01:15:52;;;;;;;18.70;12.20;;;;;;;4.33;90.47;99280.64;1491675;92;23604;-90
2021/12/10 01:24:14;;;;;;;17.20;11.73;;;;;;;4.37;90.94;99269.73;1431539;92;22259;-90
2021/12/10 01:29:21;;;;;;;19.80;11.20;;;;;;;4.42;90.85;99258.86;1450559;92;21325;-90
2021/12/10 01:31:50;;;;;;;14.43;10.33;;;;;;;4.43;90.62;99261.35;1483744;92;21450;-90
2021/12/10 01:34:17;;;;;;;17.93;11.13;;;;;;;4.40;90.69;99255.08;1493521;91;21219;-90
2021/12/10 01:36:45;;;;;;;18.10;12.43;;;;;;;4.43;90.82;99254.80;1426026;91;21983;-89
2021/12/10 01:39:19;;;;;;;16.23;11.23;;;;;;;4.41;90.96;99250.66;1452215;91;21388;-91
2021/12/10 01:41:54;;;;;;;17.40;12.37;;;;;;;4.43;90.75;99253.49;1435896;91;21543;-90
2021/12/10 01:44:26;;;;;;;15.87;11.03;;;;;;;4.41;91.09;99259.83;1427611;91;22321;-90
2021/12/10 01:47:10;;;;;;;16.83;11.67;;;;;;;4.41;91.09;99259.83;1413030;91;21410;-90
2021/12/10 01:49:46;;;;;;;15.93;10.00;;;;;;;4.40;91.38;99266.87;1460596;88;22278;-91
2021/12/10 01:52:14;;;;;;;17.83;12.03;;;;;;;4.40;91.38;99266.87;1457072;88;21472;-91
2021/12/10 01:54:47;;;;;;;17.57;11.70;;;;;;;4.36;91.48;99278.56;1464648;88;23693;-91
2021/12/10 01:57:16;;;;;;;18.70;11.67;;;;;;;4.36;91.48;99278.56;1454140;88;22552;-90
2021/12/10 01:59:46;;;;;;;15.47;11.07;;;;;;;4.39;90.98;99291.87;1460659;88;21523;-90
2021/12/10 02:02:19;;;;;;;16.73;11.60;;;;;;;4.33;91.17;99305.52;1454293;89;21515;-89
2021/12/10 02:04:47;;;;;;;16.53;10.97;;;;;;;4.36;91.48;99298.70;1453155;89;22389;-90
2021/12/10 02:07:19;;;;;;;17.03;12.07;;;;;;;4.36;91.48;99298.70;1443879;89;21685;-90
2021/12/10 02:09:49;;;;;;;15.47;10.83;;;;;;;4.33;91.59;99288.00;1453271;88;21612;-90
2021/12/10 02:12:18;;;;;;;18.33;12.90;;;;;;;4.33;91.59;99288.00;1453295;89;21309;-89
2021/12/10 02:14:58;;;;;;;17.97;12.20;;;;;;;4.34;91.45;99289.65;1447795;88;21384;-90
2021/12/10 02:17:18;;;;;;;19.37;12.60;;;;;;;4.32;91.39;99309.94;1397909;89;22233;-91
2021/12/10 02:19:46;;;;;;;18.47;12.60;;;;;;;4.32;91.39;99309.94;1451838;89;21412;-91
2021/12/10 02:22:13;;;;;;;15.37;11.67;;;;;;;4.30;91.88;99301.38;1462741;88;21421;-92
2021/12/10 02:24:40;;;;;;;16.30;11.73;;;;;;;4.23;92.01;99285.84;1453164;89;21317;-92
2021/12/10 02:27:09;;;;;;;21.83;13.80;;;;;;;4.27;91.94;99300.34;1449298;89;21633;-92
2021/12/10 02:29:41;;;;;;;18.77;12.83;;;;;;;4.24;92.00;99296.68;1453592;88;22169;-90
2021/12/10 02:32:10;;;;;;;20.77;12.37;;;;;;;4.26;91.77;99309.17;1452125;88;22161;-91
2021/12/10 02:34:40;;;;;;;19.30;12.93;;;;;;;4.24;91.87;99307.16;1454459;89;22079;-90
2021/12/10 02:37:10;;;;;;;17.15;12.35;;;;;;;4.17;91.66;99303.41;1453939;89;22308;-91
2021/12/10 02:39:38;;;;;;;18.23;12.80;;;;;;;4.19;91.70;99327.67;1452950;89;21556;-91
2021/12/10 02:42:06;;;;;;;19.67;13.57;;;;;;;4.16;91.87;99325.33;1454422;89;22182;-91
2021/12/10 02:44:33;;;;;;;21.10;14.27;;;;;;;4.01;92.77;99325.69;1443512;89;21633;-92
2021/12/10 02:47:01;;;;;;;20.87;13.97;;;;;;;4.01;93.08;99329.62;1452091;89;21516;-90
2021/12/10 02:49:30;;;;;;;18.87;13.20;;;;;;;4.01;93.08;99329.62;1466551;88;21435;-91
2021/12/10 02:52:00;;;;;;;18.63;14.37;;;;;;;3.98;93.26;99334.30;1468329;88;22117;-90
2021/12/10 02:54:36;;;;;;;18.60;13.23;;;;;;;3.96;93.31;99340.96;1470088;88;23237;-90
2021/12/10 02:57:12;;;;;;;20.97;14.67;;;;;;;3.95;93.13;99339.31;1468346;88;23093;-89
2021/12/10 02:59:40;;;;;;;18.23;13.63;;;;;;;3.94;93.15;99332.89;1468590;88;22286;-88
2021/12/10 03:02:13;;;;;;;18.97;13.63;;;;;;;3.90;92.80;99336.25;1472046;88;22302;-90
2021/12/10 03:04:43;;;;;;;19.70;13.53;;;;;;;3.90;92.80;99336.25;1472384;88;21560;-90
2021/12/10 03:07:14;;;;;;;19.67;12.73;;;;;;;3.88;93.09;99329.00;1470943;88;22094;-91
2021/12/10 03:09:46;;;;;;;18.40;14.07;;;;;;;3.85;92.90;99330.58;1499271;88;23196;-91
2021/12/10 03:12:16;;;;;;;16.60;12.30;;;;;;;3.83;92.80;99335.14;1468587;88;21390;-91
2021/12/10 03:14:47;;;;;;;16.23;11.73;;;;;;;3.81;92.66;99332.64;1553806;88;22932;-89
2021/12/10 03:17:22;;;;;;;16.03;11.97;;;;;;;3.81;92.32;99331.33;1553911;88;22004;-91
2021/12/10 03:19:50;;;;;;;16.33;12.10;;;;;;;3.79;92.22;99328.48;1390619;90;22026;-92
2021/12/10 03:22:18;;;;;;;13.30;9.63;;;;;;;3.77;92.00;99340.88;1486872;88;22048;-90
2021/12/10 03:24:46;;;;;;;14.90;11.13;;;;;;;3.74;91.79;99335.90;1467961;88;22142;-90
2021/12/10 03:27:16;;;;;;;16.60;11.30;;;;;;;3.72;91.57;99343.89;1470016;88;22158;-92
2021/12/10 03:29:45;;;;;;;17.07;12.27;;;;;;;3.69;91.55;99344.64;1470189;88;22267;-92
2021/12/10 03:32:18;;;;;;;15.70;11.67;;;;;;;3.63;91.68;99338.63;1470136;88;22250;-91
2021/12/10 03:34:46;;;;;;;17.57;12.03;;;;;;;3.56;92.02;99349.58;1469854;88;23246;-91
2021/12/10 03:37:18;;;;;;;16.47;11.63;;;;;;;3.54;91.77;99337.13;1470245;88;22220;-89
2021/12/10 03:39:48;;;;;;;17.13;11.97;;;;;;;3.50;92.19;99329.17;1468753;88;23281;-89
2021/12/10 03:42:16;;;;;;;17.15;12.73;;;;;;;3.50;91.97;99320.50;1504204;88;23594;-89
2021/12/10 03:44:44;;;;;;;17.03;12.17;;;;;;;3.48;91.84;99315.41;1465210;88;21420;-89
2021/12/10 03:47:14;;;;;;;16.20;11.17;;;;;;;3.46;91.83;99330.41;1471030;88;22182;-89
2021/12/10 03:49:42;;;;;;;22.10;14.33;;;;;;;3.45;91.81;99333.13;1467486;88;23304;-91
2021/12/10 03:52:10;;;;;;;18.13;12.90;;;;;;;3.43;91.71;99342.43;1468415;88;22203;-90
2021/12/10 03:54:41;;;;;;;17.13;12.33;;;;;;;3.43;91.64;99342.43;1454143;89;22065;-90
2021/12/10 03:57:10;;;;;;;21.80;13.80;;;;;;;3.45;91.61;99330.52;1464654;89;22116;-90
2021/12/10 03:59:41;;;;;;;19.83;13.67;;;;;;;3.42;91.58;99338.14;1471520;89;21591;-90
2021/12/10 04:02:10;;;;;;;19.82;12.73;;;;;;;3.44;91.37;99341.47;1471285;89;22231;-90
2021/12/10 04:04:47;;;;;;;19.43;13.57;;;;;;;3.41;91.71;99343.52;1474162;88;21794;-90
2021/12/10 04:07:20;;;;;;;20.17;12.70;;;;;;;3.38;91.72;99332.83;1465964;88;22293;-90
2021/12/10 04:09:54;;;;;;;19.53;13.33;;;;;;;3.34;91.96;99350.57;1462200;89;22043;-90
2021/12/10 04:12:22;;;;;;;17.00;12.70;;;;;;;3.31;92.23;99340.36;1467447;88;22093;-90
2021/12/10 04:14:52;;;;;;;18.37;12.33;;;;;;;3.33;91.96;99332.38;1464592;89;22049;-90
2021/12/10 04:17:21;;;;;;;17.83;13.23;;;;;;;3.29;92.29;99331.81;1549816;89;21932;-90
2021/12/10 04:19:50;;;;;;;17.33;12.37;;;;;;;3.27;92.08;99319.33;1386718;92;21991;-91
2021/12/10 04:22:21;;;;;;;15.57;11.53;;;;;;;3.27;91.85;99328.97;1549543;89;21910;-90
2021/12/10 04:24:52;;;;;;;13.00;9.53;;;;;;;3.27;91.72;99331.58;1549895;89;22057;-90
2021/12/10 04:27:20;;;;;;;;;;;;;;;3.25;91.56;99318.66;1552265;89;21369;-91
2021/12/10 04:29:49;;;;;;;17.90;11.50;;;;;;;3.23;91.46;99317.12;1444979;90;20256;-91
2021/12/10 04:32:18;;;;;;;18.23;12.47;;;;;;;3.23;91.41;99324.48;1429175;91;22195;-91
2021/12/10 04:34:47;;;;;;;18.30;12.43;;;;;;;3.19;91.57;99319.62;1429102;91;22134;-92
2021/12/10 04:37:16;;;;;;;20.60;13.30;;;;;;;3.18;91.57;99328.43;1427682;91;22104;-91
2021/12/10 04:39:47;;;;;;;17.50;12.50;;;;;;;3.20;91.44;99330.45;1424587;91;22599;-92
2021/12/10 04:42:22;;;;;;;20.17;13.78;;;;;;;3.18;91.47;99330.56;1410824;91;22777;-92
2021/12/10 04:44:53;;;;;;;20.77;14.37;;;;;;;3.16;91.44;99332.02;1423868;91;22616;-91
2021/12/10 04:47:21;;;;;;;20.82;13.95;;;;;;;3.16;91.41;99329.40;1426380;91;22031;-91
2021/12/10 04:49:49;;;;;;;21.30;14.20;;;;;;;3.10;91.67;99339.03;1423252;91;21566;-92
2021/12/10 04:52:19;;;;;;;19.90;13.63;;;;;;;3.10;91.67;99339.03;1424707;91;23636;-94
2021/12/10 04:54:47;;;;;;;23.87;14.53;;;;;;;3.13;91.03;99341.88;1424461;91;22157;-93
2021/12/10 04:57:16;;;;;;;26.20;16.07;;;;;;;3.08;90.91;99347.50;1424940;91;22171;-93
2021/12/10 04:59:46;;;;;;;23.70;17.20;;;;;;;3.05;90.92;99339.05;1427106;91;22120;-94
2021/12/10 05:02:16;;;;;;;22.85;15.58;;;;;;;3.10;90.87;99353.41;1454517;90;22124;-92
2021/12/10 05:04:45;;;;;;;24.60;15.78;;;;;;;3.05;91.17;99362.13;1453533;90;21346;-92
2021/12/10 05:07:17;;;;;;;23.80;15.97;;;;;;;3.05;91.09;99355.59;1534616;90;21361;-91
2021/12/10 05:09:44;;;;;;;26.67;17.00;;;;;;;3.09;91.12;99362.22;1480437;90;23060;-91
2021/12/10 05:12:12;;;;;;;28.93;18.50;;;;;;;3.14;90.91;99365.29;1424989;91;22178;-91
2021/12/10 05:14:39;;;;;;;27.10;17.07;;;;;;;3.14;90.91;99365.29;1422863;91;22122;-92
2021/12/10 05:17:09;;;;;;;27.47;18.40;;;;;;;3.19;90.83;99375.84;1426165;91;22316;-94
2021/12/10 05:19:39;;;;;;;29.48;18.52;;;;;;;3.13;90.74;99362.78;1423598;91;23653;-93
2021/12/10 05:22:11;;;;;;;30.90;17.70;;;;;;;3.20;90.71;99360.52;1427509;91;22125;-91
2021/12/10 05:24:38;;;;;;;;;;;;;;;3.21;90.83;99354.32;1427658;91;22285;-89
2021/12/10 05:27:05;;;;;;;32.33;20.30;;;;;;;3.24;90.79;99361.91;1426831;91;20302;-91
2021/12/10 05:29:33;;;;;;;33.00;21.07;;;;;;;3.24;90.57;99364.05;1426186;91;22366;-89
2021/12/10 05:32:00;;;;;;;27.67;18.77;;;;;;;3.29;90.64;99357.96;1424226;90;22227;-89
2021/12/10 05:34:28;;;;;;;27.93;19.00;;;;;;;3.25;90.48;99360.95;1425863;91;22261;-90
2021/12/10 05:36:57;;;;;;;34.27;20.57;;;;;;;3.31;90.42;99362.59;1424025;91;22225;-89
2021/12/10 05:39:25;;;;;;;30.20;19.43;;;;;;;3.28;90.18;99358.08;1408559;91;22813;-89
2021/12/10 05:41:53;;;;;;;30.30;20.27;;;;;;;3.25;90.12;99360.95;1428285;91;22145;-89
2021/12/10 05:44:21;;;;;;;27.30;19.33;;;;;;;3.24;90.14;99367.14;1428988;91;22145;-88
2021/12/10 05:46:50;;;;;;;28.90;19.13;;;;;;;3.24;90.16;99373.68;1425813;91;22086;-89
2021/12/10 05:49:17;;;;;;;37.47;24.17;;;;;;;3.26;90.21;99377.83;1410318;91;23293;-87
2021/12/10 05:51:45;;;;;;;31.13;19.90;;;;;;;3.28;90.20;99380.30;1426734;91;22156;-88
2021/12/10 05:54:14;;;;;;;27.83;19.03;;;;;;;3.27;90.14;99381.27;1427144;91;22057;-89
2021/12/10 05:56:41;;;;;;;29.20;19.20;;;;;;;3.33;90.17;99384.69;1411096;91;22055;-88
2021/12/10 05:59:12;;;;;;;24.63;16.87;;;;;;;3.33;89.88;99383.37;1425540;91;24184;-88
2021/12/10 06:01:39;;;;;;;30.35;18.77;;;;;;;3.34;89.71;99394.20;1425013;91;22143;-89
2021/12/10 06:04:07;;;;;;;26.50;17.63;;;;;;;3.33;89.63;99397.27;1426580;91;21516;-88
2021/12/10 06:06:35;;;;;;;28.10;18.20;;;;;;;3.33;89.31;99405.61;1421792;91;22236;-88
2021/12/10 06:09:07;;;;;;;30.33;18.63;;;;;;;3.29;89.33;99402.91;1435743;91;22292;-87
2021/12/10 06:11:37;;;;;;;26.97;18.53;;;;;;;3.26;89.25;99408.39;1451672;89;23076;-86
2021/12/10 06:14:06;;;;;;;23.10;15.27;;;;;;;3.25;89.30;99406.70;1432721;91;22275;-87
2021/12/10 06:16:35;;;;;;;32.43;20.53;;;;;;;3.16;89.61;99394.77;1451025;89;22580;-90
2021/12/10 06:19:06;;;;;;;110.67;58.93;;;;;;;3.16;89.61;99394.77;1431876;91;22234;-89
2021/12/10 06:21:35;;;;;;;161.15;79.62;;;;;;;3.13;89.71;99392.86;1377822;89;22977;-89
2021/12/10 06:24:04;;;;;;;216.80;103.70;;;;;;;3.13;89.92;99402.83;1513007;91;21354;-88
2021/12/10 06:26:34;;;;;;;189.17;87.53;;;;;;;3.09;90.07;99398.81;1535120;89;22059;-88
2021/12/10 06:29:03;;;;;;;170.17;72.63;;;;;;;3.07;90.09;99391.56;1504281;91;22020;-88
2021/12/10 06:31:33;;;;;;;85.33;42.93;;;;;;;3.02;90.39;99392.44;1504083;91;21940;-88
2021/12/10 06:34:00;;;;;;;54.93;30.30;;;;;;;2.98;90.33;99408.00;1494492;91;21993;-87
2021/12/10 06:36:29;;;;;;;39.37;22.53;;;;;;;2.89;90.17;99397.00;1436802;91;22112;-89
2021/12/10 06:39:01;;;;;;;31.97;20.37;;;;;;;2.92;90.52;99412.42;1451470;89;22121;-86
2021/12/10 06:41:30;;;;;;;34.77;21.20;;;;;;;2.89;90.41;99402.22;1452449;89;23543;-88
2021/12/10 06:44:01;;;;;;;35.03;21.63;;;;;;;2.91;90.54;99406.37;1426250;91;22169;-87
2021/12/10 06:46:28;;;;;;;32.48;20.52;;;;;;;2.91;90.59;99410.78;1422882;91;22265;-88
2021/12/10 06:48:58;;;;;;;36.60;22.77;;;;;;;2.90;90.73;99407.31;1409253;91;21531;-88
2021/12/10 06:51:26;;;;;;;31.07;19.90;;;;;;;2.88;90.69;99405.80;1412445;91;22295;-88
2021/12/10 06:53:53;;;;;;;43.77;23.60;;;;;;;2.90;90.73;99419.06;1395232;92;22367;-86
2021/12/10 06:56:22;;;;;;;43.73;25.90;;;;;;;2.90;90.80;99419.06;1411012;92;22259;-86
2021/12/10 06:58:52;;;;;;;40.00;23.17;;;;;;;2.90;90.80;99419.06;1410330;92;22967;-85
2021/12/10 07:01:25;;;;;;;49.37;29.40;;;;;;;2.89;90.99;99423.13;1445784;92;22032;-86
2021/12/10 07:03:55;;;;;;;45.97;27.23;;;;;;;2.86;90.72;99418.15;1409518;92;22090;-86
2021/12/10 07:06:25;;;;;;;41.50;24.80;;;;;;;2.86;90.72;99418.15;1412496;92;22161;-86
2021/12/10 07:08:57;;;;;;;38.17;22.90;;;;;;;2.87;90.91;99428.47;1420287;92;23413;-86
2021/12/10 07:11:30;;;;;;;41.67;24.70;;;;;;;2.85;91.17;99443.45;1409254;92;22079;-86
2021/12/10 07:13:58;;;;;;;46.33;26.43;;;;;;;2.84;91.24;99433.11;1415609;92;23266;-85
2021/12/10 07:16:30;;;;;;;41.30;23.87;;;;;;;2.81;91.37;99446.42;1420096;92;22078;-86
2021/12/10 07:18:59;;;;;;;40.17;22.47;;;;;;;2.81;91.37;99446.42;1404053;92;23538;-86
2021/12/10 07:21:29;;;;;;;41.03;24.30;;;;;;;2.79;91.41;99445.70;1499962;92;21692;-86
2021/12/10 07:23:58;;;;;;;41.20;23.17;;;;;;;2.79;91.41;99445.70;1500116;92;22065;-86
2021/12/10 07:26:27;;;;;;;39.53;24.80;;;;;;;2.79;91.12;99413.90;1446034;92;22031;-86
2021/12/10 07:29:05;;;;;;;70.07;39.23;;;;;;;2.84;91.19;99416.13;1434593;92;22081;-86
2021/12/10 07:31:37;;;;;;;56.60;33.50;;;;;;;2.84;91.19;99416.13;1425533;92;21965;-85
2021/12/10 07:34:05;;;;;;;58.27;31.33;;;;;;;2.77;91.16;99406.65;1363513;92;23010;-88
2021/12/10 07:36:33;;;;;;;66.43;34.03;;;;;;;2.74;91.13;99400.84;1491175;92;21997;-87
2021/12/10 07:39:03;;;;;;;63.60;33.87;;;;;;;2.73;91.49;99397.86;1488347;92;22033;-83
2021/12/10 07:41:30;;;;;;;54.40;30.47;;;;;;;2.66;91.18;99397.05;1488493;92;22065;-83
2021/12/10 07:43:58;;;;;;;55.77;32.13;;;;;;;2.63;91.29;99390.77;1442495;92;21925;-83
2021/12/10 07:46:28;;;;;;;63.00;36.03;;;;;;;2.68;91.40;99399.07;1409582;92;22241;-87
2021/12/10 07:48:56;;;;;;;59.53;31.73;;;;;;;2.68;91.40;99399.07;1488625;92;22899;-87
2021/12/10 07:51:27;;;;;;;68.57;36.60;;;;;;;2.69;91.67;99402.03;1398754;91;21525;-87
2021/12/10 07:53:57;;;;;;;66.42;34.67;;;;;;;2.71;92.29;99394.91;1495414;92;22136;-87
2021/12/10 07:56:30;;;;;;;60.93;34.93;;;;;;;2.76;93.15;99393.69;1415579;92;22003;-86
2021/12/10 07:59:00;;;;;;;61.97;35.10;;;;;;;2.77;92.39;99395.38;1421843;92;23129;-88
2021/12/10 08:01:31;;;;;;;65.67;37.50;;;;;;;2.74;92.18;99394.31;1420693;92;22324;-87
2021/12/10 08:04:06;;;;;;;61.02;33.70;;;;;;;2.74;92.18;99394.31;1421785;92;22317;-89
2021/12/10 08:06:36;;;;;;;64.17;35.93;;;;;;;2.80;91.73;99399.87;1410214;92;21435;-90
2021/12/10 08:09:08;;;;;;;67.23;38.93;;;;;;;2.77;91.49;99408.44;1453453;89;21938;-89
2021/12/10 08:11:37;;;;;;;68.37;38.50;;;;;;;2.77;91.49;99408.44;1430809;91;22140;-89
2021/12/10 08:14:04;;;;;;;66.23;36.60;;;;;;;2.81;92.15;99399.39;1429415;91;22194;-86
2021/12/10 08:16:32;;;;;;;84.77;38.37;;;;;;;2.85;92.00;99385.11;1418330;92;22154;-84
2021/12/10 08:19:01;;;;;;;66.10;34.33;;;;;;;2.81;91.05;99357.58;1424642;91;22118;-93
2021/12/10 08:21:29;;;;;;;68.23;36.80;;;;;;;2.76;91.30;99367.56;1426730;91;24095;-90
2021/12/10 08:23:58;;;;;;;63.30;31.93;;;;;;;2.68;91.24;99380.78;1419738;92;22068;-92
2021/12/10 08:26:25;;;;;;;64.17;33.00;;;;;;;2.68;91.24;99380.78;1427906;91;21905;-91
2021/12/10 08:28:53;;;;;;;65.17;34.00;;;;;;;2.70;91.26;99393.70;1409199;91;22351;-92
2021/12/10 08:31:21;;;;;;;72.27;36.63;;;;;;;2.67;91.38;99396.08;1417892;91;22393;-92
2021/12/10 08:33:51;;;;;;;70.00;35.70;;;;;;;2.58;91.24;99396.82;1422998;91;22595;-92
2021/12/10 08:36:22;;;;;;;74.87;37.20;;;;;;;2.58;91.24;99396.82;1424903;91;22117;-90
2021/12/10 08:38:51;;;;;;;70.08;35.70;;;;;;;2.54;91.97;99399.34;1443589;92;22298;-91
2021/12/10 08:41:25;;;;;;;69.57;36.40;;;;;;;2.49;92.23;99408.00;1459567;91;21338;-92
2021/12/10 08:43:56;;;;;;;74.23;37.40;;;;;;;2.51;92.20;99419.17;1353248;92;22543;-92
2021/12/10 08:46:26;;;;;;;71.87;36.00;;;;;;;2.51;92.20;99419.17;1461215;91;22076;-92
2021/12/10 08:48:55;;;;;;;72.78;37.73;;;;;;;2.54;92.24;99415.01;1444663;91;22366;-92
2021/12/10 08:51:29;;;;;;;79.63;37.90;;;;;;;2.52;92.38;99402.54;1421771;91;21675;-90
2021/12/10 08:53:57;;;;;;;81.77;40.90;;;;;;;2.54;92.27;99390.67;1429737;90;21968;-92
2021/12/10 08:56:25;;;;;;;76.80;37.57;;;;;;;2.54;92.49;99383.66;1442480;90;22840;-93
2021/12/10 08:58:53;;;;;;;73.20;36.87;;;;;;;2.49;92.36;99377.48;1440208;89;21783;-93
2021/12/10 09:01:26;;;;;;;80.53;40.07;;;;;;;2.45;92.54;99379.17;1440365;90;21942;-92
2021/12/10 09:03:57;;;;;;;73.67;38.93;;;;;;;2.46;92.42;99395.19;1441666;90;21979;-92
2021/12/10 09:06:29;;;;;;;71.92;36.63;;;;;;;2.46;92.42;99395.19;1443003;90;23043;-92
2021/12/10 09:08:58;;;;;;;76.23;38.27;;;;;;;2.53;92.74;99399.44;1436074;89;21887;-92
2021/12/10 09:11:27;;;;;;;72.40;37.77;;;;;;;2.56;92.71;99408.34;1437346;92;21967;-92
2021/12/10 09:13:55;;;;;;;73.23;34.93;;;;;;;2.60;92.35;99402.77;1485269;92;22017;-93
2021/12/10 09:16:28;;;;;;;71.47;37.17;;;;;;;2.60;92.35;99402.77;1493058;92;21657;-92
2021/12/10 09:19:02;;;;;;;75.83;38.97;;;;;;;2.60;92.29;99400.16;1465529;90;21771;-92
2021/12/10 09:21:32;;;;;;;76.60;37.77;;;;;;;2.52;92.27;99380.81;1525975;90;21844;-92
2021/12/10 09:24:04;;;;;;;74.55;38.15;;;;;;;2.52;92.27;99380.81;1408983;90;22776;-92
2021/12/10 09:26:37;;;;;;;68.77;35.27;;;;;;;2.56;92.17;99376.55;1513100;90;21295;-91
2021/12/10 09:29:09;;;;;;;74.77;36.07;;;;;;;2.56;92.17;99376.55;1366768;93;21733;-92
2021/12/10 09:31:39;;;;;;;79.30;37.97;;;;;;;2.60;92.27;99387.09;1367194;91;22678;-92
2021/12/10 09:34:07;;;;;;;64.33;33.30;;;;;;;2.60;92.27;99387.09;1527153;90;21559;-92
2021/12/10 09:36:34;;;;;;;75.00;36.10;;;;;;;2.55;91.95;99377.48;1458742;89;22269;-92
2021/12/10 09:39:07;;;;;;;67.90;31.87;;;;;;;2.55;91.95;99377.48;1445627;90;21984;-91
2021/12/10 09:41:34;;;;;;;67.63;35.13;;;;;;;2.60;92.12;99373.20;1420997;90;22818;-91
2021/12/10 09:44:04;;;;;;;79.27;39.07;;;;;;;2.58;92.26;99373.80;1450157;90;22030;-92
2021/12/10 09:46:31;;;;;;;75.27;34.00;;;;;;;2.58;91.85;99380.33;1445729;90;22912;-92
2021/12/10 09:48:59;;;;;;;78.90;37.73;;;;;;;2.60;92.15;99388.39;1442366;89;22109;-92
2021/12/10 09:51:31;;;;;;;79.90;39.33;;;;;;;2.59;92.14;99374.99;1442292;88;22153;-91
2021/12/10 09:54:06;;;;;;;78.33;38.30;;;;;;;2.63;92.09;99375.57;1450072;90;22219;-92
2021/12/10 09:56:33;;;;;;;69.13;33.90;;;;;;;2.58;92.10;99373.31;1447372;90;22263;-92
2021/12/10 09:59:00;;;;;;;70.57;32.57;;;;;;;2.62;92.18;99372.62;1449336;90;22987;-92
2021/12/10 10:01:35;;;;;;;79.73;37.70;;;;;;;2.64;92.18;99379.34;1440309;89;22263;-92
2021/12/10 10:04:05;;;;;;;77.37;38.87;;;;;;;2.67;92.00;99363.91;1441905;90;22685;-92
2021/12/10 10:06:44;;;;;;;74.83;34.77;;;;;;;2.73;91.99;99363.89;1408784;92;22241;-90
2021/12/10 10:09:16;;;;;;;75.63;35.30;;;;;;;2.73;91.99;99364.28;1408268;92;22406;-91
2021/12/10 10:11:47;;;;;;;69.93;34.23;;;;;;;2.68;91.59;99364.28;1413313;92;23421;-92
2021/12/10 10:14:16;;;;;;;69.67;34.33;;;;;;;2.70;92.06;99364.97;1387666;94;23864;-91
2021/12/10 10:16:44;;;;;;;71.47;34.70;;;;;;;2.74;91.95;99361.66;1383177;93;21421;-92
2021/12/10 10:19:14;;;;;;;75.97;36.93;;;;;;;2.77;91.81;99350.47;1396165;92;22185;-92
2021/12/10 10:21:48;;;;;;;68.03;35.10;;;;;;;2.76;91.67;99338.83;1414366;92;22022;-92
2021/12/10 10:24:26;;;;;;;72.53;34.57;;;;;;;2.80;91.56;99350.70;1382830;93;22054;-91
2021/12/10 10:27:01;;;;;;;73.93;34.40;;;;;;;2.88;91.58;99350.91;1524579;90;21999;-92
2021/12/10 10:29:32;;;;;;;80.13;38.37;;;;;;;2.90;91.28;99354.21;1438770;90;21936;-92
2021/12/10 10:32:10;;;;;;;71.63;34.97;;;;;;;2.90;91.28;99354.21;1424699;90;22698;-89
2021/12/10 10:34:52;;;;;;;65.37;30.40;;;;;;;2.71;91.09;99351.80;1515276;90;21927;-89
2021/12/10 10:37:21;;;;;;;66.00;30.50;;;;;;;2.71;91.09;99351.80;1508232;90;23032;-90
2021/12/10 10:39:52;;;;;;;66.10;31.53;;;;;;;2.73;91.15;99341.69;1431803;90;22121;-90
2021/12/10 10:42:26;;;;;;;72.90;33.93;;;;;;;2.83;91.29;99345.23;1442319;90;23105;-90
2021/12/10 10:45:20;;;;;;;69.53;32.20;;;;;;;2.83;91.29;99345.23;1439545;90;22110;-90
2021/12/10 10:47:49;;;;;;;76.00;36.07;;;;;;;2.92;91.18;99334.84;1434681;90;22153;-90
2021/12/10 10:50:28;;;;;;;70.60;32.90;;;;;;;2.92;91.18;99334.84;1444032;90;21947;-90
2021/12/10 10:53:10;;;;;;;75.03;33.53;;;;;;;2.91;90.93;99331.88;1465081;88;21977;-90
2021/12/10 10:55:42;;;;;;;67.40;32.60;;;;;;;2.90;90.72;99337.22;1554267;88;22037;-90
2021/12/10 10:58:14;;;;;;;77.17;37.47;;;;;;;2.88;90.70;99335.23;1443307;88;22204;-90
2021/12/10 11:00:57;;;;;;;66.00;31.93;;;;;;;2.80;90.65;99321.95;1469229;88;22183;-89
2021/12/10 11:03:24;;;;;;;73.67;35.17;;;;;;;2.88;90.66;99328.70;1461982;88;22164;-90
2021/12/10 11:05:58;;;;;;;71.30;33.87;;;;;;;2.94;90.87;99334.25;1470066;88;22130;-90
2021/12/10 11:08:37;;;;;;;73.00;34.73;;;;;;;2.98;90.72;99332.69;1458518;88;22130;-90
2021/12/10 11:11:15;;;;;;;67.77;32.47;;;;;;;3.02;90.79;99328.85;1465180;88;22197;-91
2021/12/10 11:13:53;;;;;;;71.47;35.20;;;;;;;3.01;90.40;99328.03;1460748;88;22262;-91
2021/12/10 11:16:33;;;;;;;67.03;33.33;;;;;;;3.01;90.31;99321.49;1470275;88;23857;-90
2021/12/10 11:19:09;;;;;;;73.33;34.03;;;;;;;3.00;90.17;99320.33;1418211;88;22177;-91
2021/12/10 11:21:56;;;;;;;74.40;34.33;;;;;;;2.95;90.11;99320.69;1505762;88;21998;-90
2021/12/10 11:24:45;;;;;;;82.13;34.80;;;;;;;2.88;90.54;99311.72;1550254;88;22078;-91
2021/12/10 11:27:33;;;;;;;72.70;33.97;;;;;;;3.01;90.54;99326.72;1440938;89;23112;-91
2021/12/10 11:30:16;;;;;;;67.07;33.43;;;;;;;3.03;90.36;99329.22;1463608;89;22226;-91
2021/12/10 11:33:03;;;;;;;70.33;32.13;;;;;;;3.04;90.40;99330.87;1465786;89;22277;-91
2021/12/10 11:35:35;;;;;;;68.20;32.17;;;;;;;3.03;90.28;99323.52;1467273;88;22216;-91
2021/12/10 11:38:19;;;;;;;70.20;34.57;;;;;;;3.04;90.46;99327.77;1455355;87;22765;-91
2021/12/10 11:41:17;;;;;;;67.73;33.33;;;;;;;3.02;90.31;99319.70;1449367;88;22218;-90
2021/12/10 11:49:28;;;;;;;69.77;34.73;;;;;;;3.03;90.49;99312.23;1470128;88;22084;-90
2021/12/10 11:52:09;;;;;;;59.90;31.10;;;;;;;3.02;90.18;99310.55;1458302;88;22036;-90
2021/12/10 11:54:59;;;;;;;60.03;29.50;;;;;;;2.99;90.53;99319.47;1437178;89;22073;-88
2021/12/10 11:57:35;;;;;;;68.87;33.20;;;;;;;2.93;90.56;99319.98;1514265;90;21887;-90
2021/12/10 12:00:46;;;;;;;68.33;32.27;;;;;;;2.93;90.56;99319.98;1439666;90;22981;-92